logo
Search for airport 
image banner adimage banner adimage banner ad
image banner ad

LFCA - Chatellerault Targe

Located in Chatellerault, France

ICAO - LFCA, IATA - XCX

Data provided by Airmate  

General information

Coordinates: N46°46'49" E0°33'2"
Elevation is 210 feet MSL.
Magnetic variation is 0.60° East
Rated:
View ratings:
[VIEW]
View others Airports in Poitou-Charentes

Operational data

Special qualification required
Current time UTC:
Current local time:
Weather at : LFBI - Poitiers Biard ( 28 km )
METAR: LFBI 162030Z AUTO 22006KT CAVOK 17/13 Q1020 NOSIG
TAF: TAF LFBI 161700Z 1618/1718 26010KT CAVOK BECMG 1700/1702 VRB03KT PROB40 TEMPO 1703/1706 3000 BR
View NOTAMs / SUP AIP / TFR affecting this airport [VIEW]
Communications frequencies: [VIEW]

Runways:

RWY identifierQFULength (ft)Width (ft)SurfaceLDA (ft)
18177°262566ASPH2454
36357°262566ASPH2625

Airport contact information

Address: Chatellerault France

Other aviation service providers

Aviation club (not for profit)

Les Ailes Chatelleraudaises

Les Ailes Chatelleraudaises

Satellite view of LFCA